Time;durP1;ratioP1;P1;durP2;ratioP2;P2;SDS_P1;SDS_P2;PMS_P1;PMS_P2;Temp;Humidity;BMP_temperature;BMP_pressure;BME280_temperature;BME280_humidity;BME280_pressure;Samples;Min_cycle;Max_cycle;Signal;HPM_P1;HPM_P2
2022/10/31 00:00:45;;;;;;;13.85;8.82;;;;;;;12.75;92.61;98615.25;4988892;28;20042;-82
2022/10/31 00:03:10;;;;;;;12.20;8.73;;;;;;;12.88;92.48;98624.97;4990559;28;20034;-81
2022/10/31 00:05:39;;;;;;;10.90;9.15;;;;;;;12.97;91.96;98618.50;4990210;28;20575;-81
2022/10/31 00:08:05;;;;;;;13.27;8.63;;;;;;;13.04;90.95;98616.69;4989580;28;20045;-81
2022/10/31 00:10:30;;;;;;;12.60;8.90;;;;;;;13.10;90.35;98614.06;4989968;28;20433;-81
2022/10/31 00:12:56;;;;;;;14.38;9.27;;;;;;;13.16;90.53;98611.63;4989370;28;20121;-81
2022/10/31 00:15:21;;;;;;;9.90;8.13;;;;;;;13.19;89.76;98613.84;4989835;28;20042;-82
2022/10/31 00:17:47;;;;;;;16.42;9.25;;;;;;;13.19;89.24;98603.31;4989806;28;20034;-82
2022/10/31 00:20:12;;;;;;;11.88;8.38;;;;;;;13.17;89.10;98605.34;4989793;28;20069;-82
2022/10/31 00:22:38;;;;;;;14.25;8.73;;;;;;;13.22;88.99;98621.38;4989004;28;20096;-82
2022/10/31 00:25:03;;;;;;;9.82;8.23;;;;;;;13.19;88.83;98611.19;4989025;28;20018;-81
2022/10/31 00:27:29;;;;;;;16.08;8.65;;;;;;;13.17;88.61;98614.03;4989580;28;20043;-82
2022/10/31 00:29:54;;;;;;;9.65;7.35;;;;;;;13.19;87.96;98611.19;4989457;28;20052;-82
2022/10/31 00:32:20;;;;;;;13.70;8.40;;;;;;;13.18;86.63;98620.94;4989293;28;20096;-81
2022/10/31 00:34:45;;;;;;;11.85;8.07;;;;;;;13.18;86.64;98614.84;4989636;28;20038;-82
2022/10/31 00:37:11;;;;;;;10.02;8.30;;;;;;;13.13;85.98;98613.66;4989757;28;20042;-82
2022/10/31 00:39:36;;;;;;;12.65;7.88;;;;;;;13.12;85.98;98616.47;4989465;28;20061;-81
2022/10/31 00:42:02;;;;;;;10.95;8.20;;;;;;;13.11;86.04;98620.94;4988940;28;20034;-81
2022/10/31 00:44:27;;;;;;;12.30;7.93;;;;;;;13.04;85.75;98609.59;4989378;28;20046;-81
2022/10/31 00:46:52;;;;;;;11.02;7.90;;;;;;;13.07;85.71;98617.09;4985748;28;20062;-81
2022/10/31 00:49:18;;;;;;;10.85;8.00;;;;;;;13.04;85.66;98625.41;4989323;28;20068;-81
2022/10/31 00:51:43;;;;;;;8.88;7.68;;;;;;;13.01;85.61;98620.50;4990042;28;20126;-82
2022/10/31 00:54:09;;;;;;;11.82;7.85;;;;;;;12.97;85.54;98619.31;4989287;28;20070;-81
2022/10/31 00:56:34;;;;;;;15.25;8.07;;;;;;;12.92;86.05;98620.94;4988397;28;20030;-81
2022/10/31 00:59:00;;;;;;;13.75;8.48;;;;;;;12.83;86.81;98617.66;4988721;28;20034;-81
2022/10/31 01:01:25;;;;;;;11.65;7.70;;;;;;;12.80;86.02;98618.09;4989161;28;20038;-81
2022/10/31 01:03:51;;;;;;;11.05;7.63;;;;;;;12.79;84.97;98605.94;4988711;28;20125;-81
2022/10/31 01:06:16;;;;;;;12.65;7.80;;;;;;;12.79;84.09;98617.28;4996263;28;20026;-82
2022/10/31 01:08:43;;;;;;;10.43;8.50;;;;;;;12.77;83.60;98613.22;4989288;28;20038;-82
2022/10/31 01:11:22;;;;;;;10.57;7.72;;;;;;;12.68;84.21;98607.34;4988828;28;20030;-81
2022/10/31 01:13:50;;;;;;;8.63;7.18;;;;;;;12.69;84.56;98603.69;4987913;28;20042;-81
2022/10/31 01:16:18;;;;;;;13.00;8.25;;;;;;;12.67;84.22;98607.56;4987693;28;20113;-81
2022/10/31 01:18:45;;;;;;;12.82;7.68;;;;;;;12.61;84.53;98610.97;4987855;28;20513;-81
2022/10/31 01:21:23;;;;;;;11.85;8.93;;;;;;;12.42;83.56;98602.84;4988320;28;20038;-82
2022/10/31 01:23:52;;;;;;;11.93;7.68;;;;;;;12.40;83.48;98612.75;4988110;28;20508;-81
2022/10/31 01:26:25;;;;;;;14.32;8.35;;;;;;;12.39;83.21;98611.13;4988198;28;20569;-82
2022/10/31 01:28:58;;;;;;;9.93;8.23;;;;;;;12.36;83.34;98597.56;4987878;28;20054;-82
2022/10/31 01:31:28;;;;;;;13.15;8.05;;;;;;;12.37;83.14;98609.72;4988703;28;20069;-82
2022/10/31 01:33:55;;;;;;;10.35;8.18;;;;;;;12.31;82.80;98608.69;4988276;28;20030;-82
2022/10/31 01:36:24;;;;;;;11.30;8.25;;;;;;;12.28;83.47;98611.69;4988444;28;20023;-82
2022/10/31 01:38:52;;;;;;;8.57;7.40;;;;;;;12.17;82.73;98612.25;4988824;28;20082;-82
2022/10/31 01:41:22;;;;;;;11.13;8.90;;;;;;;11.79;83.07;98618.75;4988311;28;20053;-82
2022/10/31 01:43:59;;;;;;;11.98;9.13;;;;;;;11.70;84.23;98617.28;4988385;28;20046;-82
2022/10/31 01:46:38;;;;;;;8.90;7.90;;;;;;;11.78;84.82;98616.31;4984125;28;20475;-82
2022/10/31 01:49:17;;;;;;;9.15;8.25;;;;;;;11.84;84.49;98620.03;4988329;28;20041;-82
2022/10/31 01:51:51;;;;;;;14.98;8.73;;;;;;;11.82;84.09;98620.22;4989028;28;20498;-82
2022/10/31 01:54:23;;;;;;;10.43;8.68;;;;;;;11.83;84.79;98611.31;4988255;28;20030;-82
2022/10/31 01:56:56;;;;;;;12.77;8.07;;;;;;;11.91;84.83;98613.78;4987811;28;20034;-82
2022/10/31 01:59:27;;;;;;;9.68;8.43;;;;;;;11.95;84.78;98607.13;4996209;28;20034;-82
2022/10/31 02:01:54;;;;;;;9.77;8.35;;;;;;;12.00;84.71;98617.88;4988272;28;20144;-82
2022/10/31 02:04:23;;;;;;;9.75;8.55;;;;;;;12.03;84.49;98616.66;4988240;28;20053;-82
2022/10/31 02:07:07;;;;;;;10.63;7.80;;;;;;;12.09;85.08;98615.06;4988255;28;20045;-82
2022/10/31 02:09:36;;;;;;;11.25;8.60;;;;;;;12.14;85.08;98617.94;4988334;28;20061;-82
2022/10/31 02:12:03;;;;;;;10.43;8.27;;;;;;;12.17;85.40;98614.88;4988088;28;20038;-82
2022/10/31 02:14:31;;;;;;;10.70;7.90;;;;;;;12.21;85.50;98614.31;4988901;28;20050;-82
2022/10/31 02:16:58;;;;;;;13.15;8.48;;;;;;;12.28;85.61;98609.06;4986992;28;20189;-82
2022/10/31 02:19:52;;;;;;;10.10;7.88;;;;;;;12.30;85.24;98617.59;4987932;28;20039;-81
2022/10/31 02:22:51;;;;;;;11.82;8.23;;;;;;;12.27;85.85;98604.81;4988599;28;20031;-82
2022/10/31 02:25:57;;;;;;;16.27;8.48;;;;;;;12.30;86.20;98609.69;4988750;28;20453;-82
2022/10/31 02:28:42;;;;;;;12.93;8.55;;;;;;;12.30;86.22;98607.06;4987905;28;20038;-82
2022/10/31 02:31:31;;;;;;;9.93;7.82;;;;;;;12.28;85.47;98603.81;4987133;28;20035;-82
2022/10/31 02:34:10;;;;;;;11.38;9.27;;;;;;;12.14;85.17;98597.69;4987041;28;20093;-82
2022/10/31 02:36:54;;;;;;;15.32;8.48;;;;;;;12.18;85.58;98606.81;5002957;28;20040;-82
2022/10/31 02:39:51;;;;;;;19.67;8.13;;;;;;;12.19;85.57;98607.63;4988128;28;20141;-82
2022/10/31 02:42:34;;;;;;;12.00;8.10;;;;;;;12.19;85.28;98600.56;4986616;28;20050;-82
2022/10/31 02:45:11;;;;;;;13.48;8.75;;;;;;;12.17;85.31;98602.56;4986467;28;20054;-82
2022/10/31 02:47:38;;;;;;;12.95;7.95;;;;;;;12.14;85.27;98596.88;5006673;28;20045;-82
2022/10/31 02:50:10;;;;;;;11.63;8.23;;;;;;;12.11;85.22;98598.06;4991316;28;20414;-82
2022/10/31 02:52:36;;;;;;;13.60;8.98;;;;;;;12.08;85.23;98598.50;4990581;28;20327;-82
2022/10/31 02:55:26;;;;;;;12.32;8.32;;;;;;;12.10;85.07;98590.41;4991602;28;20026;-82
2022/10/31 02:57:59;;;;;;;14.18;8.20;;;;;;;12.08;84.67;98587.16;4991363;28;20035;-82
2022/10/31 03:00:33;;;;;;;14.07;8.50;;;;;;;12.00;84.70;98588.97;4989441;28;20483;-82
2022/10/31 03:03:19;;;;;;;12.77;8.07;;;;;;;11.91;84.79;98591.94;4990444;28;20030;-82
2022/10/31 03:06:16;;;;;;;12.05;8.63;;;;;;;11.82;84.92;98596.56;4991169;28;20030;-82
2022/10/31 03:08:55;;;;;;;13.68;8.07;;;;;;;11.85;85.63;98597.97;4991148;28;20042;-81
2022/10/31 03:11:31;;;;;;;14.43;7.88;;;;;;;11.82;85.52;98599.19;4989469;28;20054;-82
2022/10/31 03:14:05;;;;;;;12.80;8.15;;;;;;;11.79;85.91;98594.28;4990088;28;20034;-82
2022/10/31 03:16:52;;;;;;;13.00;8.20;;;;;;;11.83;85.84;98598.19;4990007;28;20397;-82
2022/10/31 03:19:25;;;;;;;13.93;7.97;;;;;;;11.80;85.78;98590.66;4990218;28;20049;-82
2022/10/31 03:22:00;;;;;;;14.70;8.40;;;;;;;11.90;85.62;98606.91;4990987;28;20038;-82
2022/10/31 03:24:35;;;;;;;14.05;9.07;;;;;;;11.89;85.16;98601.84;4989816;28;20074;-82
2022/10/31 03:27:06;;;;;;;13.25;8.57;;;;;;;11.91;85.35;98603.25;4990167;28;20109;-82
2022/10/31 03:29:37;;;;;;;10.43;8.00;;;;;;;11.89;84.97;98600.03;4990362;28;20071;-82
2022/10/31 03:32:14;;;;;;;13.60;8.18;;;;;;;11.85;84.95;98605.88;4990670;28;20085;-82
2022/10/31 03:34:44;;;;;;;14.38;8.63;;;;;;;11.78;85.04;98603.19;4990796;28;20084;-82
2022/10/31 03:37:16;;;;;;;12.35;8.57;;;;;;;11.80;84.93;98611.66;4988310;28;20035;-82
2022/10/31 03:39:46;;;;;;;14.20;8.32;;;;;;;11.73;84.51;98605.56;4990042;28;20042;-82
2022/10/31 03:42:21;;;;;;;10.90;8.30;;;;;;;11.81;84.91;98615.94;4990929;28;20105;-82
2022/10/31 03:44:56;;;;;;;13.40;8.10;;;;;;;11.83;85.13;98613.97;4985878;28;20494;-83
2022/10/31 03:47:23;;;;;;;9.60;7.05;;;;;;;11.83;84.79;98608.69;4989979;28;20034;-82
2022/10/31 03:49:49;;;;;;;17.33;8.75;;;;;;;11.83;84.33;98611.31;4990446;28;20049;-82
2022/10/31 03:52:42;;;;;;;13.02;8.15;;;;;;;11.83;84.48;98627.09;4990986;28;20060;-82
2022/10/31 03:55:16;;;;;;;14.63;7.93;;;;;;;11.79;84.62;98620.56;4990519;28;20030;-82
2022/10/31 03:57:57;;;;;;;10.52;8.52;;;;;;;11.70;83.76;98622.56;4989782;28;20034;-82
2022/10/31 04:00:22;;;;;;;10.27;6.93;;;;;;;11.71;83.73;98613.66;4989387;28;20475;-82
2022/10/31 04:03:01;;;;;;;17.67;8.10;;;;;;;11.65;84.03;98603.94;4990103;28;20041;-82
2022/10/31 04:05:29;;;;;;;13.18;7.78;;;;;;;11.64;84.16;98612.00;4989849;28;20370;-82
2022/10/31 04:07:58;;;;;;;12.32;8.63;;;;;;;11.64;84.27;98606.75;4990120;28;20026;-82
2022/10/31 04:10:28;;;;;;;14.38;7.97;;;;;;;11.51;83.92;98607.47;4989811;28;20089;-82
2022/10/31 04:13:03;;;;;;;13.38;7.95;;;;;;;11.45;84.44;98613.47;4989863;28;20043;-82
2022/10/31 04:15:30;;;;;;;14.40;8.95;;;;;;;11.48;84.07;98610.50;4989807;28;20490;-82
2022/10/31 04:17:59;;;;;;;13.57;8.07;;;;;;;11.46;84.25;98604.63;4989859;28;20057;-82
2022/10/31 04:20:41;;;;;;;13.05;8.02;;;;;;;11.44;84.54;98610.06;4989511;28;20401;-82
2022/10/31 04:23:20;;;;;;;14.98;8.30;;;;;;;11.40;84.16;98608.84;4988717;28;20078;-82
2022/10/31 04:25:46;;;;;;;23.73;8.65;;;;;;;11.40;84.33;98606.19;4988775;28;20034;-82
2022/10/31 04:28:11;;;;;;;12.30;7.88;;;;;;;11.38;84.01;98587.19;4989943;28;20564;-82
2022/10/31 04:30:37;;;;;;;14.32;7.90;;;;;;;11.33;84.13;98586.94;4989184;28;20050;-82
2022/10/31 04:33:02;;;;;;;14.20;8.07;;;;;;;11.35;83.83;98592.84;4989608;28;20402;-82
2022/10/31 04:35:28;;;;;;;18.08;9.07;;;;;;;11.36;83.90;98594.44;4988991;28;20046;-82
2022/10/31 04:37:53;;;;;;;16.63;8.55;;;;;;;11.34;83.83;98601.72;4989684;28;20062;-83
2022/10/31 04:40:18;;;;;;;11.15;8.10;;;;;;;11.32;83.82;98593.19;5004321;28;20041;-83
2022/10/31 04:42:44;;;;;;;13.55;8.05;;;;;;;11.28;83.72;98591.97;4989941;28;20125;-82
2022/10/31 04:45:09;;;;;;;10.07;7.78;;;;;;;11.30;83.85;98595.22;4986441;28;20120;-82
2022/10/31 04:47:38;;;;;;;13.13;8.68;;;;;;;11.18;83.31;98589.69;4989235;28;20042;-82
2022/10/31 04:50:04;;;;;;;13.57;8.10;;;;;;;11.20;84.00;98602.59;4988982;28;20125;-82
2022/10/31 04:52:29;;;;;;;14.80;8.02;;;;;;;11.19;83.95;98601.00;4988887;28;20042;-82
2022/10/31 04:54:55;;;;;;;15.57;8.48;;;;;;;11.18;83.81;98596.75;4989449;28;20176;-82
2022/10/31 04:57:20;;;;;;;16.17;8.00;;;;;;;11.17;84.15;98590.69;4987818;28;20049;-82
2022/10/31 04:59:46;;;;;;;11.63;7.63;;;;;;;11.15;83.98;98591.88;4989363;28;20061;-82
2022/10/31 05:02:11;;;;;;;15.45;8.32;;;;;;;10.94;83.97;98579.59;4988852;28;20034;-81
2022/10/31 05:04:37;;;;;;;14.75;7.95;;;;;;;11.02;85.09;98597.81;4989180;28;20053;-82
2022/10/31 05:07:02;;;;;;;13.48;8.43;;;;;;;10.93;85.11;98594.53;4988554;28;20788;-82
2022/10/31 05:09:28;;;;;;;15.63;9.38;;;;;;;11.02;85.54;98591.78;4988365;28;20498;-82
2022/10/31 05:11:53;;;;;;;13.52;7.95;;;;;;;11.04;85.15;98589.78;4989124;28;20121;-82
2022/10/31 05:14:19;;;;;;;18.63;7.85;;;;;;;11.08;85.14;98591.00;4988733;28;20038;-83
2022/10/31 05:16:44;;;;;;;17.52;7.20;;;;;;;11.11;85.14;98596.69;4989258;28;20030;-82
2022/10/31 05:19:10;;;;;;;12.75;7.57;;;;;;;11.08;84.75;98597.06;4988311;28;20069;-82
2022/10/31 05:21:35;;;;;;;13.55;7.20;;;;;;;11.08;85.35;98596.25;4988632;28;20034;-82
2022/10/31 05:24:00;;;;;;;15.15;6.68;;;;;;;11.11;85.27;98601.16;4988657;28;20498;-83
2022/10/31 05:26:26;;;;;;;13.32;7.40;;;;;;;11.12;85.00;98597.50;4988540;28;20498;-82
2022/10/31 05:28:51;;;;;;;15.00;7.53;;;;;;;11.14;84.55;98590.25;4988679;28;20046;-83
2022/10/31 05:31:17;;;;;;;12.95;7.40;;;;;;;11.17;84.59;98590.69;4988640;28;20396;-82
2022/10/31 05:33:42;;;;;;;14.52;7.45;;;;;;;11.20;84.23;98589.47;4988642;28;20061;-82
2022/10/31 05:36:08;;;;;;;15.70;7.97;;;;;;;11.22;84.28;98595.38;4988239;28;20126;-82
2022/10/31 05:38:33;;;;;;;10.75;7.22;;;;;;;11.23;84.86;98589.13;4989100;28;20045;-82
2022/10/31 05:41:00;;;;;;;13.57;7.60;;;;;;;11.23;84.71;98599.63;4988701;28;20122;-82
2022/10/31 05:43:27;;;;;;;15.40;7.20;;;;;;;11.13;85.37;98592.06;4987848;28;20046;-83
2022/10/31 05:45:54;;;;;;;11.18;7.43;;;;;;;11.18;85.22;98592.31;4984996;28;20030;-83
2022/10/31 05:48:19;;;;;;;13.73;7.78;;;;;;;11.19;85.16;98598.38;4988241;28;20030;-82
2022/10/31 05:50:48;;;;;;;10.50;7.75;;;;;;;11.18;85.05;98599.38;4988734;28;20043;-82
2022/10/31 05:53:15;;;;;;;12.57;8.15;;;;;;;11.12;84.85;98597.50;4988123;28;20541;-82
2022/10/31 05:55:43;;;;;;;14.20;8.35;;;;;;;11.14;84.84;98608.63;4988376;28;20597;-83
2022/10/31 05:58:10;;;;;;;13.30;7.97;;;;;;;10.99;84.07;98588.53;4987411;28;20042;-83
2022/10/31 06:00:36;;;;;;;10.38;7.72;;;;;;;11.11;85.13;98601.94;4988016;28;20038;-83
2022/10/31 06:03:05;;;;;;;14.32;8.43;;;;;;;11.11;85.40;98595.91;4988180;28;20038;-82
2022/10/31 06:05:31;;;;;;;14.07;8.48;;;;;;;11.16;85.44;98604.00;4988415;28;20037;-83
2022/10/31 06:07:57;;;;;;;21.55;8.85;;;;;;;11.16;86.10;98604.00;4985394;28;20061;-83
2022/10/31 06:10:23;;;;;;;12.48;8.18;;;;;;;11.15;85.50;98602.38;4988139;28;20530;-82
2022/10/31 06:12:49;;;;;;;14.55;8.40;;;;;;;11.01;85.48;98595.41;4988680;28;20045;-82
2022/10/31 06:15:15;;;;;;;14.43;8.13;;;;;;;10.96;85.53;98599.41;4987199;28;20038;-83
2022/10/31 06:17:41;;;;;;;12.55;7.50;;;;;;;10.60;85.39;98601.28;4988436;28;20046;-82
2022/10/31 06:20:08;;;;;;;9.25;8.02;;;;;;;10.33;86.57;98605.47;4989908;28;20069;-82
2022/10/31 06:22:33;;;;;;;14.38;8.65;;;;;;;10.15;87.85;98608.47;4992416;28;20033;-82
2022/10/31 06:24:59;;;;;;;10.35;7.68;;;;;;;10.22;89.24;98604.09;4992019;28;20381;-82
2022/10/31 06:27:25;;;;;;;11.65;8.07;;;;;;;10.26;88.40;98602.78;4991747;28;20038;-82
2022/10/31 06:29:51;;;;;;;18.95;9.35;;;;;;;10.21;88.04;98604.31;4991210;28;20051;-82
2022/10/31 06:32:17;;;;;;;11.13;8.20;;;;;;;10.13;88.28;98592.91;4990701;28;20038;-82
2022/10/31 06:34:43;;;;;;;15.07;8.20;;;;;;;10.09;88.62;98602.16;4990605;28;20053;-83
2022/10/31 06:37:11;;;;;;;15.52;8.40;;;;;;;10.07;88.55;98592.84;4991777;28;20757;-82
2022/10/31 06:39:37;;;;;;;17.05;8.90;;;;;;;10.03;88.58;98599.44;4990533;28;20046;-83
2022/10/31 06:42:04;;;;;;;25.20;8.88;;;;;;;10.01;89.13;98602.22;4985060;28;20100;-82
2022/10/31 06:44:30;;;;;;;16.48;7.78;;;;;;;9.98;89.89;98615.72;5004919;28;20042;-83
2022/10/31 06:46:56;;;;;;;19.80;8.50;;;;;;;10.08;90.41;98618.06;4988062;28;20041;-82
2022/10/31 06:49:21;;;;;;;21.52;8.23;;;;;;;10.00;90.66;98624.19;4990638;28;20030;-82
2022/10/31 06:51:48;;;;;;;25.52;8.27;;;;;;;9.96;91.35;98627.41;4991321;28;20054;-82
2022/10/31 06:54:14;;;;;;;25.17;8.73;;;;;;;9.98;92.17;98622.78;4989560;28;20550;-82
2022/10/31 06:56:40;;;;;;;18.95;8.38;;;;;;;10.04;92.30;98624.66;4990438;28;20046;-82
2022/10/31 06:59:05;;;;;;;23.33;9.32;;;;;;;9.89;92.45;98601.88;4990867;28;20083;-82
2022/10/31 07:01:31;;;;;;;23.42;9.52;;;;;;;10.02;93.53;98626.66;4991131;28;20136;-82
2022/10/31 07:03:57;;;;;;;21.75;8.93;;;;;;;10.14;93.63;98620.75;5005366;28;20074;-82
2022/10/31 07:06:22;;;;;;;22.50;8.43;;;;;;;10.21;93.25;98615.59;5006001;28;20443;-82
2022/10/31 07:08:48;;;;;;;14.43;7.75;;;;;;;10.25;92.51;98614.25;4989861;28;20031;-82
2022/10/31 07:11:13;;;;;;;16.02;8.20;;;;;;;10.33;93.57;98623.81;4990445;28;20034;-82
2022/10/31 07:13:38;;;;;;;17.40;8.32;;;;;;;10.44;92.75;98618.91;4990327;28;20062;-82
2022/10/31 07:16:11;;;;;;;10.73;6.95;;;;;;;10.52;91.65;98620.59;4989841;28;20426;-82
2022/10/31 07:18:37;;;;;;;16.48;8.07;;;;;;;10.60;91.32;98635.41;4988495;28;20046;-82
2022/10/31 07:21:03;;;;;;;16.33;7.07;;;;;;;10.59;90.27;98623.28;5002717;28;20060;-82
2022/10/31 07:23:29;;;;;;;13.02;7.93;;;;;;;10.48;90.96;98623.78;4990693;28;20034;-82
2022/10/31 07:25:57;;;;;;;11.95;6.50;;;;;;;10.41;91.08;98627.13;4989913;28;20034;-82
2022/10/31 07:28:23;;;;;;;20.83;8.27;;;;;;;10.51;91.99;98626.03;4989613;28;20103;-83
2022/10/31 07:31:06;;;;;;;9.68;7.30;;;;;;;10.70;93.02;98620.16;4989043;28;20042;-82
2022/10/31 07:33:32;;;;;;;10.75;7.82;;;;;;;11.01;92.76;98621.66;4989068;28;20042;-82
2022/10/31 07:35:57;;;;;;;26.20;7.65;;;;;;;11.12;90.41;98626.38;4989062;28;20041;-82
2022/10/31 07:38:23;;;;;;;12.98;7.53;;;;;;;11.25;89.81;98627.28;4990279;28;20026;-83
2022/10/31 07:40:53;;;;;;;23.70;7.45;;;;;;;11.32;88.84;98627.34;4989584;28;20053;-82
2022/10/31 07:43:19;;;;;;;18.25;7.72;;;;;;;11.20;88.54;98621.78;4989566;28;20042;-83
2022/10/31 07:45:50;;;;;;;19.05;8.10;;;;;;;11.13;88.97;98625.38;4986429;28;20041;-82
2022/10/31 07:48:16;;;;;;;22.25;7.65;;;;;;;11.04;89.12;98631.78;4989696;28;20038;-82
2022/10/31 07:50:41;;;;;;;27.08;8.40;;;;;;;10.86;90.64;98630.41;4987438;28;20087;-82
2022/10/31 07:53:10;;;;;;;11.63;8.10;;;;;;;11.02;92.90;98637.19;4988946;28;20030;-82
2022/10/31 07:55:37;;;;;;;26.02;8.45;;;;;;;11.17;92.15;98634.50;4987319;28;20069;-82
2022/10/31 07:58:12;;;;;;;32.70;8.00;;;;;;;11.20;90.18;98642.00;5003494;28;20053;-82
2022/10/31 08:00:41;;;;;;;17.48;7.55;;;;;;;11.33;90.13;98636.03;4989092;28;20036;-82
2022/10/31 08:03:09;;;;;;;8.98;7.10;;;;;;;11.42;89.64;98630.44;4988599;28;20109;-82
2022/10/31 08:05:36;;;;;;;21.85;8.02;;;;;;;11.56;89.06;98635.78;4989471;28;20043;-82
2022/10/31 08:08:04;;;;;;;13.52;7.50;;;;;;;11.52;88.95;98624.88;4989714;28;20062;-82
2022/10/31 08:10:30;;;;;;;11.73;8.23;;;;;;;11.57;88.99;98619.00;4988906;28;20129;-82
2022/10/31 08:13:08;;;;;;;12.70;7.78;;;;;;;11.70;89.95;98622.56;4989005;28;20943;-82
2022/10/31 08:15:37;;;;;;;11.23;7.55;;;;;;;11.89;88.99;98618.44;4989445;28;20121;-82
2022/10/31 08:18:03;;;;;;;8.60;7.60;;;;;;;12.07;88.26;98619.72;4989407;28;20054;-82
2022/10/31 08:20:29;;;;;;;11.05;7.78;;;;;;;12.14;86.70;98617.94;4989711;28;20062;-82
2022/10/31 08:23:03;;;;;;;12.18;7.35;;;;;;;12.15;85.76;98622.16;4989803;28;20041;-83
2022/10/31 08:25:32;;;;;;;13.30;6.90;;;;;;;12.16;84.72;98613.28;4987875;28;20410;-83
2022/10/31 08:27:57;;;;;;;8.68;7.22;;;;;;;12.18;85.56;98613.91;4988017;28;20038;-83
2022/10/31 08:30:27;;;;;;;9.27;7.10;;;;;;;12.29;86.21;98616.78;4989009;28;20133;-83
2022/10/31 08:33:03;;;;;;;9.13;7.55;;;;;;;12.39;85.17;98621.66;4988941;28;20863;-83
2022/10/31 08:35:29;;;;;;;20.83;7.75;;;;;;;12.29;83.42;98621.19;4988352;28;20046;-83
2022/10/31 08:37:56;;;;;;;8.68;7.80;;;;;;;12.37;85.54;98615.78;4989217;28;20038;-83
2022/10/31 08:40:24;;;;;;;12.27;7.05;;;;;;;12.43;83.47;98612.34;4989367;28;20085;-83
2022/10/31 08:43:02;;;;;;;11.85;7.65;;;;;;;12.12;84.16;98612.06;4989312;28;20037;-84
2022/10/31 08:45:30;;;;;;;10.05;8.23;;;;;;;12.23;86.59;98612.28;4981465;28;20038;-84
2022/10/31 08:48:04;;;;;;;9.23;7.75;;;;;;;12.47;86.42;98610.94;4986354;28;20066;-84
2022/10/31 08:50:33;;;;;;;12.15;7.68;;;;;;;12.52;84.12;98615.59;4988235;28;20535;-86
2022/10/31 08:53:05;;;;;;;13.45;8.52;;;;;;;12.45;83.17;98607.69;4989020;28;20073;-84
2022/10/31 08:55:35;;;;;;;9.40;8.32;;;;;;;12.58;84.09;98612.19;5002680;28;20431;-84
2022/10/31 08:58:01;;;;;;;12.13;8.55;;;;;;;12.73;84.28;98601.47;4988579;28;20125;-84
2022/10/31 09:00:26;;;;;;;8.95;8.02;;;;;;;12.85;83.09;98608.56;4988841;28;20169;-84
2022/10/31 09:03:00;;;;;;;10.55;7.97;;;;;;;12.97;84.26;98605.34;4988886;28;20113;-84
2022/10/31 09:05:25;;;;;;;10.15;8.20;;;;;;;13.18;82.88;98604.31;4989421;28;20022;-84
2022/10/31 09:07:54;;;;;;;11.43;8.65;;;;;;;13.24;82.19;98603.53;4989091;28;20041;-84
2022/10/31 09:10:20;;;;;;;10.10;8.60;;;;;;;13.22;81.32;98605.56;4988826;28;20041;-84
2022/10/31 09:12:45;;;;;;;25.27;9.48;;;;;;;13.07;82.79;98603.94;4988012;28;20030;-84
2022/10/31 09:15:11;;;;;;;14.45;9.38;;;;;;;13.16;82.03;98601.09;4989585;28;20073;-84
2022/10/31 09:17:36;;;;;;;12.20;9.50;;;;;;;13.15;82.49;98597.66;4989144;28;20046;-84
2022/10/31 09:20:02;;;;;;;12.10;9.80;;;;;;;13.36;82.57;98594.81;5004567;28;20486;-84
2022/10/31 09:22:27;;;;;;;12.90;9.63;;;;;;;13.06;82.72;98602.28;4989169;28;20402;-84
2022/10/31 09:24:53;;;;;;;11.27;9.73;;;;;;;13.20;83.51;98592.59;4987952;28;20057;-84
2022/10/31 09:27:18;;;;;;;11.68;9.32;;;;;;;13.13;82.75;98592.59;4989186;28;20419;-84
2022/10/31 09:29:44;;;;;;;15.20;9.85;;;;;;;12.96;83.01;98591.38;4988808;28;20078;-85
2022/10/31 09:32:09;;;;;;;12.85;10.13;;;;;;;13.01;85.15;98588.91;4988756;28;20034;-83
2022/10/31 09:34:35;;;;;;;14.75;10.10;;;;;;;12.98;85.32;98588.53;4988787;28;20120;-84
2022/10/31 09:37:00;;;;;;;14.77;10.90;;;;;;;13.30;84.80;98592.19;4992224;28;20034;-84
2022/10/31 09:39:26;;;;;;;14.38;10.73;;;;;;;13.25;84.37;98591.97;4988714;28;20046;-84
2022/10/31 09:42:18;;;;;;;16.08;11.15;;;;;;;13.35;83.97;98592.38;4989074;28;20088;-83
2022/10/31 09:44:50;;;;;;;18.90;11.07;;;;;;;13.46;83.47;98594.38;4986378;28;20113;-84
2022/10/31 09:47:33;;;;;;;14.05;10.88;;;;;;;13.70;83.66;98586.84;4988034;28;20076;-84
2022/10/31 09:50:22;;;;;;;16.88;11.02;;;;;;;13.75;82.54;98589.66;4989756;28;20096;-84
2022/10/31 09:53:02;;;;;;;14.60;10.52;;;;;;;13.90;82.76;98577.81;4988628;28;20085;-83
2022/10/31 09:55:40;;;;;;;14.25;10.90;;;;;;;13.92;82.47;98590.81;4993616;28;20046;-84
2022/10/31 09:58:18;;;;;;;14.93;11.70;;;;;;;14.00;81.91;98582.66;4991715;28;20061;-84
2022/10/31 10:00:47;;;;;;;12.93;10.63;;;;;;;14.12;82.19;98583.63;4991619;28;20049;-84
2022/10/31 10:03:43;;;;;;;14.98;11.35;;;;;;;14.13;81.86;98577.31;4994581;28;20038;-84
2022/10/31 10:06:19;;;;;;;11.50;10.13;;;;;;;14.30;81.71;98580.28;4990206;28;20426;-84
2022/10/31 10:08:45;;;;;;;15.05;10.07;;;;;;;14.31;81.34;98573.19;4992314;28;20397;-84
2022/10/31 10:11:10;;;;;;;12.55;10.60;;;;;;;14.47;82.22;98575.34;4993011;28;20034;-83
2022/10/31 10:14:08;;;;;;;14.32;10.43;;;;;;;14.63;80.81;98571.38;5008734;28;20030;-84
2022/10/31 10:17:36;;;;;;;15.05;10.00;;;;;;;14.79;81.23;98565.56;4991095;28;20096;-84
2022/10/31 10:20:29;;;;;;;13.07;10.68;;;;;;;14.87;80.76;98564.50;4991036;28;20037;-84
2022/10/31 10:23:53;;;;;;;10.75;9.60;;;;;;;14.94;80.50;98566.09;5005900;28;20026;-84
2022/10/31 10:26:22;;;;;;;11.80;9.50;;;;;;;15.13;80.65;98561.66;4962456;28;20132;-87
2022/10/31 10:29:33;;;;;;;14.23;9.68;;;;;;;15.22;80.08;98562.97;4996078;28;20042;-87
2022/10/31 10:32:12;;;;;;;12.25;9.60;;;;;;;15.30;80.00;98550.53;4985793;28;20046;-87
2022/10/31 10:34:57;;;;;;;12.85;9.93;;;;;;;15.43;79.87;98548.53;4995000;28;20041;-87
2022/10/31 10:37:40;;;;;;;11.23;8.88;;;;;;;15.39;80.03;98549.19;5007191;28;20053;-85
2022/10/31 10:40:25;;;;;;;13.05;9.43;;;;;;;15.43;80.49;98543.25;4992779;28;20030;-85
2022/10/31 10:43:21;;;;;;;11.68;9.68;;;;;;;15.56;80.62;98549.44;4993715;28;20105;-84
2022/10/31 10:49:04;;;;;;;10.23;8.93;;;;;;;15.82;80.16;98532.47;5004117;28;20046;-85
2022/10/31 10:52:08;;;;;;;14.57;10.70;;;;;;;15.89;79.86;98534.00;4991640;28;20290;-84
2022/10/31 10:55:11;;;;;;;10.73;9.60;;;;;;;15.99;79.03;98528.19;4994293;28;20050;-84
2022/10/31 10:57:56;;;;;;;15.13;9.32;;;;;;;16.10;79.33;98530.06;4993716;28;20050;-84
2022/10/31 11:00:49;;;;;;;10.90;9.55;;;;;;;16.17;79.24;98514.91;5008701;28;20096;-87
2022/10/31 11:03:17;;;;;;;10.70;9.07;;;;;;;16.22;78.80;98517.69;4989175;28;20498;-87
2022/10/31 11:05:54;;;;;;;14.10;9.32;;;;;;;16.27;78.85;98517.81;4993802;28;20062;-87
2022/10/31 11:08:34;;;;;;;12.30;9.20;;;;;;;16.36;79.35;98513.00;5005818;28;20398;-84
2022/10/31 11:11:32;;;;;;;11.67;9.13;;;;;;;16.36;78.28;98507.69;4989875;28;20030;-84
2022/10/31 11:14:14;;;;;;;11.23;9.18;;;;;;;16.42;79.68;98501.50;4988873;28;20421;-84
2022/10/31 11:16:45;;;;;;;12.73;9.80;;;;;;;16.42;78.74;98501.50;4986648;28;20154;-84
2022/10/31 11:19:23;;;;;;;11.32;9.80;;;;;;;16.50;78.48;98498.53;4988425;28;20038;-84
2022/10/31 11:21:49;;;;;;;16.10;10.13;;;;;;;16.39;77.91;98494.03;4988903;28;20042;-84
2022/10/31 11:24:20;;;;;;;12.27;9.38;;;;;;;16.52;78.37;98493.00;4988262;28;20517;-84
2022/10/31 11:26:49;;;;;;;12.10;9.05;;;;;;;16.60;78.71;98482.06;4988950;28;20641;-84
2022/10/31 11:29:24;;;;;;;11.77;9.40;;;;;;;16.65;78.34;98479.56;4987595;28;20050;-84
2022/10/31 11:31:54;;;;;;;13.40;9.10;;;;;;;16.71;77.62;98476.03;4987301;28;20077;-84
2022/10/31 11:34:28;;;;;;;14.13;9.07;;;;;;;16.74;78.39;98462.34;4988357;28;20129;-84
2022/10/31 11:37:02;;;;;;;13.63;10.25;;;;;;;16.90;79.48;98460.00;4988858;28;20035;-84
2022/10/31 11:39:28;;;;;;;15.13;9.73;;;;;;;16.96;77.39;98453.78;4988336;28;20537;-84
2022/10/31 11:41:55;;;;;;;16.25;9.93;;;;;;;17.03;77.72;98454.47;4991778;28;20026;-84
2022/10/31 11:44:27;;;;;;;13.02;9.57;;;;;;;17.08;77.86;98446.63;5002914;28;20087;-84
2022/10/31 11:47:00;;;;;;;17.27;10.05;;;;;;;17.10;76.01;98444.56;4983682;28;20030;-84